Flight Track Log - Related Links

Times and Time Zones

All times are in EDT time to prevent confusion due to time zone crossing. See the N57346 flight status page for this flight to view local times or setup timezone preferences in your user account.

Time Position Orientation Groundspeed Altitude Reporting Facility
EDT Latitude Longitude Course Direction KTS MPH feet Rate Location/Type
Sat 11:29:26 AM 40.9169 -77.7025 71° East 129 148 3,900  Level New York Center
Sat 11:30:26 AM 40.9303 -77.6517 71° East 129 148 3,900  Level New York Center
Sat 11:31:26 AM 40.9389 -77.6086 75° East 129 148 3,900  Level New York Center
Sat 11:32:26 AM 40.9519 -77.5631 69° East 124 143 3,900  Level New York Center
Sat 11:33:26 AM 40.9631 -77.5175 72° East 124 143 3,900 -100 Level New York Center
Sat 11:34:26 AM 40.9761 -77.4664 71° East 124 143 3,700 -250 Descending New York Center
Sat 11:35:26 AM 40.9872 -77.4181 73° East 129 148 3,400 -150 Descending New York Center
Sat 11:36:26 AM 41.0025 -77.3700 67° East 129 148 3,400 -50 Level New York Center
Sat 11:37:26 AM 41.0136 -77.3217 73° East 129 148 3,300 -50 Descending New York Center
Sat 11:38:26 AM 41.0261 -77.2817 67° East 122 140 3,300 1,350 Level New York Center
Sat 11:39:26 AM 41.0328 -77.2381 79° East 122 140 6,000 700 Climbing New York Center
Sat 11:40:26 AM 41.0431 -77.2006 70° East 116 133 4,700 -400 Descending New York Center
Sat 11:41:26 AM 41.0536 -77.1603 71° East 116 133 5,200 500 Climbing New York Center
Sat 11:42:26 AM 41.0619 -77.1225 74° East 110 127 5,700 350 Climbing New York Center
Sat 11:43:26 AM 41.0744 -77.0825 67° East 104 120 5,900 100 Climbing New York Center
Sat 11:44:26 AM 41.0831 -77.0364 76° East 114 131 5,900  Level New York Center
Sat 11:45:26 AM 41.0961 -76.9881 70° East 125 144 5,900  Level New York Center
Sat 11:46:26 AM 41.1069 -76.9422 73° East 125 144 5,900  Level New York Center
Sat 11:47:26 AM 41.1194 -76.8992 69° East 125 144 5,900  Level New York Center
Sat 11:48:26 AM 41.1303 -76.8508 73° East 125 144 5,900  Level New York Center
Sat 11:49:26 AM 41.1411 -76.8047 73° East 125 144 5,900  Level New York Center
Sat 11:50:26 AM 41.1536 -76.7592 70° East 125 144 5,900  Level New York Center
Sat 11:51:26 AM 41.1644 -76.7103 74° East 125 144 5,900  Level New York Center
Sat 11:52:26 AM 41.1728 -76.6669 76° East 131 151 5,900  Level New York Center
Sat 11:53:26 AM 41.1881 -76.6161 68° East 136 157 5,900  Level New York Center
Sat 11:54:26 AM 41.1986 -76.5700 73° East 136 157 5,900  Level New York Center
Sat 11:55:26 AM 41.2111 -76.5242 70° East 136 157 5,900  Level New York Center
Sat 11:56:26 AM 41.2217 -76.4808 72° East 131 151 5,900  Level New York Center
Sat 11:57:26 AM 41.2322 -76.4322 74° East 126 145 5,900  Level New York Center
Sat 11:58:26 AM 41.2450 -76.3836 71° East 126 145 5,900  Level New York Center
Sat 11:59:26 AM 41.2556 -76.3375 73° East 126 145 5,900  Level New York Center
Sat 12:00:26 PM 41.2661 -76.2886 74° East 126 145 5,900  Level New York Center
Sat 12:01:26 PM 41.2783 -76.2483 68° East 126 145 5,900  Level New York Center
Sat 12:02:26 PM 41.2786 -76.1986 90° East 126 145 5,900  Level New York Center
Sat 12:03:26 PM 41.2811 -76.1408 87° East 131 151 5,900  Level New York Center
Sat 12:04:26 PM 41.2836 -76.0914 86° East 131 151 5,900  Level New York Center
Sat 12:05:26 PM 41.2856 -76.0444 87° East 131 151 5,900  Level New York Center
Sat 12:06:26 PM 41.2856 -75.9975 90° East 131 151 5,900  Level New York Center
Sat 12:07:26 PM 41.2878 -75.9481 87° East 131 151 5,900  Level New York Center
Sat 12:08:26 PM 41.2900 -75.8986 87° East 131 151 5,900  Level New York Center
Sat 12:09:26 PM 41.2919 -75.8489 87° East 131 151 5,900  Level New York Center
Sat 12:10:26 PM 41.2922 -75.7964 90° East 131 151 5,900  Level New York Center
Sat 12:11:26 PM 41.2942 -75.7469 87° East 136 157 5,900  Level New York Center
Sat 12:13:00 PM 41.3359 -75.6980 41° Northeast  Level FlightAware Approximate
Sat 12:20:00 PM 41.4537 -75.4061 76° East  Level Estimated
Sat 12:21:00 PM 41.4668 -75.3620 68° East  Level FlightAware Approximate
Sat 12:22:00 PM 41.4799 -75.3179 68° East  Level FlightAware Approximate
Sat 12:23:00 PM 41.4930 -75.2738 68° East  Level FlightAware Approximate
Sat 12:24:00 PM 41.5000 -75.2500 North  Level FlightAware Approximate
Sat 12:25:00 PM 41.5156 -75.2516 North  Level Estimated
Sat 12:26:00 PM 41.5156 -75.2516 North  Level Estimated
Sat 12:27:00 PM 41.5156 -75.2516 North  Level Estimated
Sat 12:28:00 PM 41.5156 -75.2516 North  Level Estimated
Sat 12:29:00 PM 41.5156 -75.2516 North  Level Estimated
Sat 12:30:00 PM 41.5156 -75.2516 North  Level Estimated
Sat 12:31:00 PM 41.5156 -75.2516 North  Level Estimated
Sat 12:32:00 PM 41.5156 -75.2516 North  Level Estimated
Sat 12:33:00 PM 41.5156 -75.2516 North  Level Estimated
Sat 12:34:00 PM 41.5156 -75.2516 North  Level Estimated
Sat 12:35:00 PM 41.5156 -75.2516 North  Level Estimated

Login

Don't have an account? Register now (free) for customized features, flight alerts, and more!